Olympic Champion — SYWD — position and weather

sailwx.info

Track history (hours):
 
Tides and Currents Weather Stations Pressure Air Temp Water Temp Dewpoint Dewpoint Depression Visibility Wind Speed Wind Dir Waves Ship Positions

Olympic Champion

Last reported at 2016-Jul-29 14:29 UTC. Time now 2016-Jul-29 15:56 UTC.
Position N 43°22' E 014°14'.

Length 204 m; draft 6.4 m.

Type: Passenger vessel. MMSI: 237280000.

Date/timePositionNaut miles runAvg speedWind from/ knotsBaromVisibWave heightAir tempDewpointWater temp
2016-Jul-29 14:29N 43°22' E 014°14'3618.5
2016-Jul-29 12:31N 43°38' E 013°29'30420.1
2016-Jul-28 21:25N 40°35' E 018°56'9519.5
2016-Jul-28 16:33N 39°21' E 020°14'5925.6
2016-Jul-28 14:15N 38°27' E 020°46'1724.4
2016-Jul-28 13:33N 38°18' E 021°03'13 2.6
2016-Jul-28 08:34N 38°15' E 021°20'2826.6
2016-Jul-28 07:30N 38°27' E 020°47'13519.5
2016-Jul-28 00:33N 40°18' E 019°08'91 3.7
2016-Jul-27 00:04N 41°26' E 017°46'1727.7
2016-Jul-26 23:26N 41°14' E 018°03'232 6.8
2016-Jul-25 13:34N 43°37' E 013°55'312 8.4
2016-Jul-24 00:16N 40°11' E 019°11'22927.9
2016-Jul-23 16:04N 42°40' E 015°19'1427.4
2016-Jul-23 15:34N 42°49' E 015°05'2727.3
2016-Jul-23 14:34N 43°07' E 014°37'5723.2
2016-Jul-23 12:06N 43°39' E 013°31'6 1.5
2016-Jul-23 08:05N 43°42' E 013°38'1120.5
2016-Jul-23 07:33N 43°39' E 013°52'26027.6
2016-Jul-22 22:08N 40°57' E 018°26'1627.4
2016-Jul-22 21:33N 40°46' E 018°41'243 7.8
2016-Jul-21 14:26N 43°16' E 014°24'2527.9
2016-Jul-21 13:33N 43°33' E 013°59'2019.9
2016-Jul-21 12:33N 43°39' E 013°34'3 3.3
2016-Jul-21 11:33N 43°37' E 013°30'0 0.0
2016-Jul-21 10:33N 43°37' E 013°30'2 1.8
2016-Jul-21 09:33N 43°39' E 013°30'1817.9
2016-Jul-21 08:34N 43°39' E 013°55'2828.0
2016-Jul-21 07:34N 43°22' E 014°26'43024.6
2016-Jul-20 14:06N 38°17' E 021°06'1425.9
2016-Jul-20 13:33N 38°15' E 021°23'2 0.6
2016-Jul-20 10:06N 38°15' E 021°26'46024.6
2016-Jul-19 15:26N 43°31' E 014°03'2022.5
2016-Jul-19 14:33N 43°41' E 013°40'  
Track history (hours):
 
Tides and Currents Weather Stations Pressure Air Temp Water Temp Dewpoint Dewpoint Depression Visibility Wind Speed Wind Dir Waves Ship Positions

Olympic Champion

Last reported at 2016-Jul-29 14:29 UTC. Time now 2016-Jul-29 15:56 UTC.
Position N 43°22' E 014°14'.

Length 204 m; draft 6.4 m.

Type: Passenger vessel. MMSI: 237280000.

Date/timePositionNaut miles runAvg speedWind from/ knotsBaromVisibWave heightAir tempDewpointWater temp
2016-Jul-29 14:29N 43°22' E 014°14'3618.5
2016-Jul-29 12:31N 43°38' E 013°29'30420.1
2016-Jul-28 21:25N 40°35' E 018°56'9519.5
2016-Jul-28 16:33N 39°21' E 020°14'5925.6
2016-Jul-28 14:15N 38°27' E 020°46'1724.4
2016-Jul-28 13:33N 38°18' E 021°03'13 2.6
2016-Jul-28 08:34N 38°15' E 021°20'2826.6
2016-Jul-28 07:30N 38°27' E 020°47'13519.5
2016-Jul-28 00:33N 40°18' E 019°08'91 3.7
2016-Jul-27 00:04N 41°26' E 017°46'1727.7
2016-Jul-26 23:26N 41°14' E 018°03'232 6.8
2016-Jul-25 13:34N 43°37' E 013°55'312 8.4
2016-Jul-24 00:16N 40°11' E 019°11'22927.9
2016-Jul-23 16:04N 42°40' E 015°19'1427.4
2016-Jul-23 15:34N 42°49' E 015°05'2727.3
2016-Jul-23 14:34N 43°07' E 014°37'5723.2
2016-Jul-23 12:06N 43°39' E 013°31'6 1.5
2016-Jul-23 08:05N 43°42' E 013°38'1120.5
2016-Jul-23 07:33N 43°39' E 013°52'26027.6
2016-Jul-22 22:08N 40°57' E 018°26'1627.4
2016-Jul-22 21:33N 40°46' E 018°41'243 7.8
2016-Jul-21 14:26N 43°16' E 014°24'2527.9
2016-Jul-21 13:33N 43°33' E 013°59'2019.9
2016-Jul-21 12:33N 43°39' E 013°34'3 3.3
2016-Jul-21 11:33N 43°37' E 013°30'0 0.0
2016-Jul-21 10:33N 43°37' E 013°30'2 1.8
2016-Jul-21 09:33N 43°39' E 013°30'1817.9
2016-Jul-21 08:34N 43°39' E 013°55'2828.0
2016-Jul-21 07:34N 43°22' E 014°26'43024.6
2016-Jul-20 14:06N 38°17' E 021°06'1425.9
2016-Jul-20 13:33N 38°15' E 021°23'2 0.6
2016-Jul-20 10:06N 38°15' E 021°26'46024.6
2016-Jul-19 15:26N 43°31' E 014°03'2022.5
2016-Jul-19 14:33N 43°41' E 013°40'  

Dump ship's entire track history